sensor_id;sensor_type;location;lat;lon;timestamp;temperature;humidity
44729;DHT22;30457;53.590;9.922;2022-11-12T00:00:21;14.60;58.00
44729;DHT22;30457;53.590;9.922;2022-11-12T00:05:05;14.50;58.00
44729;DHT22;30457;53.590;9.922;2022-11-12T00:09:50;14.60;58.10
44729;DHT22;30457;53.590;9.922;2022-11-12T00:14:34;14.50;58.00
44729;DHT22;30457;53.590;9.922;2022-11-12T00:19:18;14.50;58.10
44729;DHT22;30457;53.590;9.922;2022-11-12T00:24:02;14.50;58.10
44729;DHT22;30457;53.590;9.922;2022-11-12T00:28:46;14.50;58.10
44729;DHT22;30457;53.590;9.922;2022-11-12T00:33:30;14.50;58.10
44729;DHT22;30457;53.590;9.922;2022-11-12T00:38:14;14.50;58.10
44729;DHT22;30457;53.590;9.922;2022-11-12T00:42:58;14.50;58.10
44729;DHT22;30457;53.590;9.922;2022-11-12T00:47:42;14.40;57.90
44729;DHT22;30457;53.590;9.922;2022-11-12T00:52:26;14.40;57.90
44729;DHT22;30457;53.590;9.922;2022-11-12T00:57:10;14.40;57.80
44729;DHT22;30457;53.590;9.922;2022-11-12T01:01:54;14.40;57.80
44729;DHT22;30457;53.590;9.922;2022-11-12T01:06:39;14.40;57.90
44729;DHT22;30457;53.590;9.922;2022-11-12T01:11:26;14.40;57.80
44729;DHT22;30457;53.590;9.922;2022-11-12T01:16:15;14.40;57.90
44729;DHT22;30457;53.590;9.922;2022-11-12T01:21:00;14.30;57.90
44729;DHT22;30457;53.590;9.922;2022-11-12T01:25:45;14.40;57.90
44729;DHT22;30457;53.590;9.922;2022-11-12T01:30:29;14.40;57.80
44729;DHT22;30457;53.590;9.922;2022-11-12T01:35:13;14.40;57.80
44729;DHT22;30457;53.590;9.922;2022-11-12T01:39:57;14.40;57.80
44729;DHT22;30457;53.590;9.922;2022-11-12T01:44:43;14.40;57.70
44729;DHT22;30457;53.590;9.922;2022-11-12T01:49:42;14.40;57.70
44729;DHT22;30457;53.590;9.922;2022-11-12T01:54:27;14.40;57.70
44729;DHT22;30457;53.590;9.922;2022-11-12T01:59:25;14.40;57.70
44729;DHT22;30457;53.590;9.922;2022-11-12T02:04:11;14.40;57.60
44729;DHT22;30457;53.590;9.922;2022-11-12T02:08:55;14.50;57.70
44729;DHT22;30457;53.590;9.922;2022-11-12T02:13:40;14.50;57.60
44729;DHT22;30457;53.590;9.922;2022-11-12T02:18:43;14.50;57.60
44729;DHT22;30457;53.590;9.922;2022-11-12T02:23:27;14.50;57.60
44729;DHT22;30457;53.590;9.922;2022-11-12T02:28:11;14.60;57.50
44729;DHT22;30457;53.590;9.922;2022-11-12T02:32:55;14.60;57.40
44729;DHT22;30457;53.590;9.922;2022-11-12T02:37:39;14.60;57.50
44729;DHT22;30457;53.590;9.922;2022-11-12T02:42:26;14.60;57.10
44729;DHT22;30457;53.590;9.922;2022-11-12T02:47:10;14.60;56.80
44729;DHT22;30457;53.590;9.922;2022-11-12T02:51:54;14.50;56.60
44729;DHT22;30457;53.590;9.922;2022-11-12T02:56:38;14.40;56.50
44729;DHT22;30457;53.590;9.922;2022-11-12T03:01:22;14.40;56.50
44729;DHT22;30457;53.590;9.922;2022-11-12T03:06:06;14.30;56.60
44729;DHT22;30457;53.590;9.922;2022-11-12T03:10:51;14.20;56.50
44729;DHT22;30457;53.590;9.922;2022-11-12T03:15:35;14.10;56.50
44729;DHT22;30457;53.590;9.922;2022-11-12T03:20:19;14.00;56.40
44729;DHT22;30457;53.590;9.922;2022-11-12T03:25:04;13.90;56.40
44729;DHT22;30457;53.590;9.922;2022-11-12T03:29:49;13.90;56.50
44729;DHT22;30457;53.590;9.922;2022-11-12T03:34:34;13.80;56.50
44729;DHT22;30457;53.590;9.922;2022-11-12T03:39:18;13.70;56.50
44729;DHT22;30457;53.590;9.922;2022-11-12T03:44:02;13.60;56.50
44729;DHT22;30457;53.590;9.922;2022-11-12T03:48:46;13.50;56.50
44729;DHT22;30457;53.590;9.922;2022-11-12T03:53:30;13.40;56.50
44729;DHT22;30457;53.590;9.922;2022-11-12T03:58:14;13.40;56.60
44729;DHT22;30457;53.590;9.922;2022-11-12T04:02:59;13.30;56.50
44729;DHT22;30457;53.590;9.922;2022-11-12T04:07:43;13.20;56.50
44729;DHT22;30457;53.590;9.922;2022-11-12T04:12:46;13.20;56.50
44729;DHT22;30457;53.590;9.922;2022-11-12T04:17:49;13.10;56.60
44729;DHT22;30457;53.590;9.922;2022-11-12T04:22:52;13.00;56.60
44729;DHT22;30457;53.590;9.922;2022-11-12T04:27:36;13.00;56.70
44729;DHT22;30457;53.590;9.922;2022-11-12T04:32:21;12.90;56.60
44729;DHT22;30457;53.590;9.922;2022-11-12T04:37:05;12.80;56.70
44729;DHT22;30457;53.590;9.922;2022-11-12T04:41:49;12.80;56.70
44729;DHT22;30457;53.590;9.922;2022-11-12T04:46:52;12.70;56.80
44729;DHT22;30457;53.590;9.922;2022-11-12T04:51:36;12.70;56.80
44729;DHT22;30457;53.590;9.922;2022-11-12T04:56:39;12.60;56.70
44729;DHT22;30457;53.590;9.922;2022-11-12T05:01:23;12.50;56.70
44729;DHT22;30457;53.590;9.922;2022-11-12T05:06:08;12.50;56.70
44729;DHT22;30457;53.590;9.922;2022-11-12T05:11:11;12.40;56.80
44729;DHT22;30457;53.590;9.922;2022-11-12T05:15:55;12.30;56.80
44729;DHT22;30457;53.590;9.922;2022-11-12T05:20:39;12.30;56.90
44729;DHT22;30457;53.590;9.922;2022-11-12T05:25:23;12.20;56.90
44729;DHT22;30457;53.590;9.922;2022-11-12T05:30:08;12.20;56.90
44729;DHT22;30457;53.590;9.922;2022-11-12T05:34:52;12.10;57.00
44729;DHT22;30457;53.590;9.922;2022-11-12T05:39:36;12.10;57.00
44729;DHT22;30457;53.590;9.922;2022-11-12T05:44:20;12.00;56.90
44729;DHT22;30457;53.590;9.922;2022-11-12T05:49:05;11.90;56.80
44729;DHT22;30457;53.590;9.922;2022-11-12T05:53:49;11.90;56.90
44729;DHT22;30457;53.590;9.922;2022-11-12T05:58:33;11.80;56.90
44729;DHT22;30457;53.590;9.922;2022-11-12T06:03:19;11.80;56.80
44729;DHT22;30457;53.590;9.922;2022-11-12T06:08:04;11.70;56.90
44729;DHT22;30457;53.590;9.922;2022-11-12T06:12:48;11.70;56.90
44729;DHT22;30457;53.590;9.922;2022-11-12T06:17:32;11.60;56.90
44729;DHT22;30457;53.590;9.922;2022-11-12T06:22:17;11.60;57.00
44729;DHT22;30457;53.590;9.922;2022-11-12T06:27:01;11.50;57.10
44729;DHT22;30457;53.590;9.922;2022-11-12T06:31:45;11.50;57.30
44729;DHT22;30457;53.590;9.922;2022-11-12T06:36:29;11.40;56.80
44729;DHT22;30457;53.590;9.922;2022-11-12T06:41:13;11.40;57.30
44729;DHT22;30457;53.590;9.922;2022-11-12T06:46:03;11.40;57.30
44729;DHT22;30457;53.590;9.922;2022-11-12T06:50:47;11.40;57.40
44729;DHT22;30457;53.590;9.922;2022-11-12T06:55:32;11.30;57.50
44729;DHT22;30457;53.590;9.922;2022-11-12T07:00:16;11.30;57.70
44729;DHT22;30457;53.590;9.922;2022-11-12T07:05:00;11.30;57.70
44729;DHT22;30457;53.590;9.922;2022-11-12T07:09:44;11.30;57.70
44729;DHT22;30457;53.590;9.922;2022-11-12T07:14:28;11.30;57.60
44729;DHT22;30457;53.590;9.922;2022-11-12T07:19:12;11.30;57.70
44729;DHT22;30457;53.590;9.922;2022-11-12T07:23:56;11.30;58.20
44729;DHT22;30457;53.590;9.922;2022-11-12T07:28:41;11.30;57.70
44729;DHT22;30457;53.590;9.922;2022-11-12T07:33:27;11.20;58.40
44729;DHT22;30457;53.590;9.922;2022-11-12T07:38:11;11.20;57.70
44729;DHT22;30457;53.590;9.922;2022-11-12T07:42:57;11.30;58.00
44729;DHT22;30457;53.590;9.922;2022-11-12T07:47:41;11.20;58.10
44729;DHT22;30457;53.590;9.922;2022-11-12T07:52:25;11.30;58.00
44729;DHT22;30457;53.590;9.922;2022-11-12T07:57:09;11.30;58.10
44729;DHT22;30457;53.590;9.922;2022-11-12T08:01:53;11.30;58.30
44729;DHT22;30457;53.590;9.922;2022-11-12T08:06:37;11.40;58.60
44729;DHT22;30457;53.590;9.922;2022-11-12T08:11:22;11.40;58.70
44729;DHT22;30457;53.590;9.922;2022-11-12T08:16:06;11.50;58.80
44729;DHT22;30457;53.590;9.922;2022-11-12T08:20:50;11.60;59.00
44729;DHT22;30457;53.590;9.922;2022-11-12T08:25:35;11.70;59.20
44729;DHT22;30457;53.590;9.922;2022-11-12T08:30:19;11.80;59.40
44729;DHT22;30457;53.590;9.922;2022-11-12T08:35:04;12.00;59.50
44729;DHT22;30457;53.590;9.922;2022-11-12T08:39:48;12.20;59.50
44729;DHT22;30457;53.590;9.922;2022-11-12T08:44:32;12.40;59.60
44729;DHT22;30457;53.590;9.922;2022-11-12T08:49:16;12.60;59.60
44729;DHT22;30457;53.590;9.922;2022-11-12T08:54:00;12.80;59.60
44729;DHT22;30457;53.590;9.922;2022-11-12T08:58:44;13.00;59.40
44729;DHT22;30457;53.590;9.922;2022-11-12T09:03:28;13.30;59.40
44729;DHT22;30457;53.590;9.922;2022-11-12T09:08:15;13.40;59.20
44729;DHT22;30457;53.590;9.922;2022-11-12T09:13:01;13.60;58.90
44729;DHT22;30457;53.590;9.922;2022-11-12T09:17:45;13.80;59.00
44729;DHT22;30457;53.590;9.922;2022-11-12T09:22:29;14.10;58.70
44729;DHT22;30457;53.590;9.922;2022-11-12T09:27:16;14.20;58.40
44729;DHT22;30457;53.590;9.922;2022-11-12T09:32:00;14.40;58.00
44729;DHT22;30457;53.590;9.922;2022-11-12T09:36:44;14.60;57.80
44729;DHT22;30457;53.590;9.922;2022-11-12T09:41:34;14.70;57.40
44729;DHT22;30457;53.590;9.922;2022-11-12T09:46:27;14.90;57.00
44729;DHT22;30457;53.590;9.922;2022-11-12T09:51:20;15.00;57.00
44729;DHT22;30457;53.590;9.922;2022-11-12T09:56:06;15.10;56.70
44729;DHT22;30457;53.590;9.922;2022-11-12T10:00:55;15.30;56.60
44729;DHT22;30457;53.590;9.922;2022-11-12T10:05:58;15.30;56.40
44729;DHT22;30457;53.590;9.922;2022-11-12T10:10:46;15.40;56.20
44729;DHT22;30457;53.590;9.922;2022-11-12T10:26:21;15.70;55.70
44729;DHT22;30457;53.590;9.922;2022-11-12T10:31:17;15.80;55.70
44729;DHT22;30457;53.590;9.922;2022-11-12T10:36:28;15.90;55.70
44729;DHT22;30457;53.590;9.922;2022-11-12T10:41:26;15.90;55.70
44729;DHT22;30457;53.590;9.922;2022-11-12T10:46:21;16.00;55.40
44729;DHT22;30457;53.590;9.922;2022-11-12T10:51:24;16.10;55.20
44729;DHT22;30457;53.590;9.922;2022-11-12T10:56:29;16.20;54.80
44729;DHT22;30457;53.590;9.922;2022-11-12T11:11:46;16.50;54.80
44729;DHT22;30457;53.590;9.922;2022-11-12T11:16:50;16.60;55.00
44729;DHT22;30457;53.590;9.922;2022-11-12T11:32:24;17.00;54.20
44729;DHT22;30457;53.590;9.922;2022-11-12T11:37:24;17.20;54.20
44729;DHT22;30457;53.590;9.922;2022-11-12T11:42:38;17.30;54.20
44729;DHT22;30457;53.590;9.922;2022-11-12T11:47:43;17.50;53.60
44729;DHT22;30457;53.590;9.922;2022-11-12T11:52:43;17.60;53.70
44729;DHT22;30457;53.590;9.922;2022-11-12T11:57:31;17.70;52.80
44729;DHT22;30457;53.590;9.922;2022-11-12T12:07:36;17.80;52.70
44729;DHT22;30457;53.590;9.922;2022-11-12T12:12:36;17.90;52.70
44729;DHT22;30457;53.590;9.922;2022-11-12T12:17:46;17.90;52.40
44729;DHT22;30457;53.590;9.922;2022-11-12T12:22:45;17.90;51.90
44729;DHT22;30457;53.590;9.922;2022-11-12T12:27:37;17.90;52.20
44729;DHT22;30457;53.590;9.922;2022-11-12T12:38:05;17.80;52.30
44729;DHT22;30457;53.590;9.922;2022-11-12T12:43:05;17.80;52.20
44729;DHT22;30457;53.590;9.922;2022-11-12T12:47:52;17.70;52.20
44729;DHT22;30457;53.590;9.922;2022-11-12T12:52:59;17.70;52.10
44729;DHT22;30457;53.590;9.922;2022-11-12T12:57:44;17.70;52.10
44729;DHT22;30457;53.590;9.922;2022-11-12T13:02:36;17.60;52.40
44729;DHT22;30457;53.590;9.922;2022-11-12T13:07:39;17.70;52.60
44729;DHT22;30457;53.590;9.922;2022-11-12T13:13:00;17.60;52.10
44729;DHT22;30457;53.590;9.922;2022-11-12T13:17:46;17.60;52.20
44729;DHT22;30457;53.590;9.922;2022-11-12T13:32:29;17.60;52.20
44729;DHT22;30457;53.590;9.922;2022-11-12T13:37:20;17.60;52.70
44729;DHT22;30457;53.590;9.922;2022-11-12T13:42:16;17.60;52.40
44729;DHT22;30457;53.590;9.922;2022-11-12T13:47:21;17.60;52.20
44729;DHT22;30457;53.590;9.922;2022-11-12T13:52:07;17.60;52.50
44729;DHT22;30457;53.590;9.922;2022-11-12T13:56:51;17.60;52.60
44729;DHT22;30457;53.590;9.922;2022-11-12T14:01:35;17.60;52.50
44729;DHT22;30457;53.590;9.922;2022-11-12T14:06:37;17.60;52.30
44729;DHT22;30457;53.590;9.922;2022-11-12T14:21:25;17.50;51.80
44729;DHT22;30457;53.590;9.922;2022-11-12T14:26:10;17.40;52.10
44729;DHT22;30457;53.590;9.922;2022-11-12T14:30:56;17.40;52.40
44729;DHT22;30457;53.590;9.922;2022-11-12T14:35:41;17.30;52.20
44729;DHT22;30457;53.590;9.922;2022-11-12T14:40:28;17.30;52.60
44729;DHT22;30457;53.590;9.922;2022-11-12T14:45:18;17.20;52.40
44729;DHT22;30457;53.590;9.922;2022-11-12T14:50:04;17.10;52.60
44729;DHT22;30457;53.590;9.922;2022-11-12T14:54:54;17.00;52.60
44729;DHT22;30457;53.590;9.922;2022-11-12T14:59:40;16.90;52.20
44729;DHT22;30457;53.590;9.922;2022-11-12T15:04:24;16.90;52.50
44729;DHT22;30457;53.590;9.922;2022-11-12T15:09:08;16.80;52.40
44729;DHT22;30457;53.590;9.922;2022-11-12T15:13:53;16.70;52.50
44729;DHT22;30457;53.590;9.922;2022-11-12T15:18:39;16.60;52.50
44729;DHT22;30457;53.590;9.922;2022-11-12T15:23:23;16.50;52.60
44729;DHT22;30457;53.590;9.922;2022-11-12T15:28:21;16.30;52.60
44729;DHT22;30457;53.590;9.922;2022-11-12T15:37:59;16.10;52.60
44729;DHT22;30457;53.590;9.922;2022-11-12T15:42:46;16.00;52.60
44729;DHT22;30457;53.590;9.922;2022-11-12T15:47:30;15.80;52.60
44729;DHT22;30457;53.590;9.922;2022-11-12T15:52:14;15.70;52.80
44729;DHT22;30457;53.590;9.922;2022-11-12T15:56:58;15.60;52.80
44729;DHT22;30457;53.590;9.922;2022-11-12T16:01:43;15.50;52.90
44729;DHT22;30457;53.590;9.922;2022-11-12T16:06:27;15.40;52.90
44729;DHT22;30457;53.590;9.922;2022-11-12T16:11:12;15.20;52.90
44729;DHT22;30457;53.590;9.922;2022-11-12T16:16:17;15.10;52.90
44729;DHT22;30457;53.590;9.922;2022-11-12T16:21:01;15.00;53.20
44729;DHT22;30457;53.590;9.922;2022-11-12T16:25:45;14.90;53.30
44729;DHT22;30457;53.590;9.922;2022-11-12T16:30:33;14.80;53.50
44729;DHT22;30457;53.590;9.922;2022-11-12T16:35:17;14.70;53.30
44729;DHT22;30457;53.590;9.922;2022-11-12T16:40:12;14.50;53.40
44729;DHT22;30457;53.590;9.922;2022-11-12T16:44:57;14.40;53.40
44729;DHT22;30457;53.590;9.922;2022-11-12T16:49:41;14.30;53.70
44729;DHT22;30457;53.590;9.922;2022-11-12T16:54:26;14.20;53.60
44729;DHT22;30457;53.590;9.922;2022-11-12T16:59:10;14.10;53.80
44729;DHT22;30457;53.590;9.922;2022-11-12T17:03:58;14.00;54.00
44729;DHT22;30457;53.590;9.922;2022-11-12T17:08:42;13.90;54.20
44729;DHT22;30457;53.590;9.922;2022-11-12T17:13:28;13.80;54.00
44729;DHT22;30457;53.590;9.922;2022-11-12T17:18:12;13.70;54.20
44729;DHT22;30457;53.590;9.922;2022-11-12T17:22:57;13.60;54.10
44729;DHT22;30457;53.590;9.922;2022-11-12T17:27:41;13.50;54.30
44729;DHT22;30457;53.590;9.922;2022-11-12T17:32:25;13.50;54.40
44729;DHT22;30457;53.590;9.922;2022-11-12T17:37:09;13.30;54.20
44729;DHT22;30457;53.590;9.922;2022-11-12T17:41:53;13.30;54.60
44729;DHT22;30457;53.590;9.922;2022-11-12T17:46:37;13.20;54.50
44729;DHT22;30457;53.590;9.922;2022-11-12T17:51:23;13.20;54.50
44729;DHT22;30457;53.590;9.922;2022-11-12T17:56:11;13.10;54.70
44729;DHT22;30457;53.590;9.922;2022-11-12T18:01:22;13.00;54.90
44729;DHT22;30457;53.590;9.922;2022-11-12T18:06:21;13.00;55.10
44729;DHT22;30457;53.590;9.922;2022-11-12T18:11:07;12.90;55.40
44729;DHT22;30457;53.590;9.922;2022-11-12T18:15:51;12.80;55.90
44729;DHT22;30457;53.590;9.922;2022-11-12T18:20:36;12.70;55.10
44729;DHT22;30457;53.590;9.922;2022-11-12T18:25:21;12.60;55.20
44729;DHT22;30457;53.590;9.922;2022-11-12T18:30:05;12.60;55.20
44729;DHT22;30457;53.590;9.922;2022-11-12T18:34:50;12.50;55.20
44729;DHT22;30457;53.590;9.922;2022-11-12T18:39:34;12.50;55.30
44729;DHT22;30457;53.590;9.922;2022-11-12T18:44:19;12.40;55.50
44729;DHT22;30457;53.590;9.922;2022-11-12T18:49:03;12.40;55.80
44729;DHT22;30457;53.590;9.922;2022-11-12T18:53:47;12.30;55.80
44729;DHT22;30457;53.590;9.922;2022-11-12T18:58:32;12.30;55.80
44729;DHT22;30457;53.590;9.922;2022-11-12T19:03:16;12.30;55.70
44729;DHT22;30457;53.590;9.922;2022-11-12T19:08:01;12.20;55.80
44729;DHT22;30457;53.590;9.922;2022-11-12T19:12:45;12.20;56.00
44729;DHT22;30457;53.590;9.922;2022-11-12T19:17:29;12.10;55.90
44729;DHT22;30457;53.590;9.922;2022-11-12T19:22:13;12.10;55.90
44729;DHT22;30457;53.590;9.922;2022-11-12T19:26:57;12.00;56.10
44729;DHT22;30457;53.590;9.922;2022-11-12T19:31:41;12.00;56.10
44729;DHT22;30457;53.590;9.922;2022-11-12T19:36:26;11.90;56.20
44729;DHT22;30457;53.590;9.922;2022-11-12T19:41:12;11.90;56.70
44729;DHT22;30457;53.590;9.922;2022-11-12T19:45:57;11.90;57.00
44729;DHT22;30457;53.590;9.922;2022-11-12T19:50:41;11.90;57.10
44729;DHT22;30457;53.590;9.922;2022-11-12T19:55:25;11.80;57.10
44729;DHT22;30457;53.590;9.922;2022-11-12T20:00:12;11.80;57.50
44729;DHT22;30457;53.590;9.922;2022-11-12T20:04:57;11.80;57.60
44729;DHT22;30457;53.590;9.922;2022-11-12T20:09:41;11.80;57.80
44729;DHT22;30457;53.590;9.922;2022-11-12T20:14:26;11.90;58.10
44729;DHT22;30457;53.590;9.922;2022-11-12T20:19:11;11.90;58.60
44729;DHT22;30457;53.590;9.922;2022-11-12T20:23:55;11.80;57.80
44729;DHT22;30457;53.590;9.922;2022-11-12T20:28:40;11.80;57.70
44729;DHT22;30457;53.590;9.922;2022-11-12T20:33:25;11.80;57.70
44729;DHT22;30457;53.590;9.922;2022-11-12T20:38:09;11.80;57.40
44729;DHT22;30457;53.590;9.922;2022-11-12T20:42:54;11.80;57.50
44729;DHT22;30457;53.590;9.922;2022-11-12T20:47:38;11.80;57.80
44729;DHT22;30457;53.590;9.922;2022-11-12T20:52:22;11.70;57.60
44729;DHT22;30457;53.590;9.922;2022-11-12T20:57:06;11.70;57.70
44729;DHT22;30457;53.590;9.922;2022-11-12T21:01:50;11.70;58.00
44729;DHT22;30457;53.590;9.922;2022-11-12T21:06:35;11.70;58.30
44729;DHT22;30457;53.590;9.922;2022-11-12T21:11:20;11.70;58.40
44729;DHT22;30457;53.590;9.922;2022-11-12T21:16:05;11.70;58.50
44729;DHT22;30457;53.590;9.922;2022-11-12T21:20:49;11.70;58.50
44729;DHT22;30457;53.590;9.922;2022-11-12T21:25:36;11.70;58.50
44729;DHT22;30457;53.590;9.922;2022-11-12T21:30:20;11.70;58.60
44729;DHT22;30457;53.590;9.922;2022-11-12T21:35:05;11.70;58.50
44729;DHT22;30457;53.590;9.922;2022-11-12T21:39:49;11.70;58.30
44729;DHT22;30457;53.590;9.922;2022-11-12T21:44:33;11.70;58.30
44729;DHT22;30457;53.590;9.922;2022-11-12T21:49:17;11.70;58.30
44729;DHT22;30457;53.590;9.922;2022-11-12T21:54:04;11.60;58.10
44729;DHT22;30457;53.590;9.922;2022-11-12T21:58:49;11.60;58.40
44729;DHT22;30457;53.590;9.922;2022-11-12T22:03:33;11.60;58.30
44729;DHT22;30457;53.590;9.922;2022-11-12T22:08:17;11.50;58.20
44729;DHT22;30457;53.590;9.922;2022-11-12T22:13:01;11.50;58.10
44729;DHT22;30457;53.590;9.922;2022-11-12T22:17:45;11.40;58.00
44729;DHT22;30457;53.590;9.922;2022-11-12T22:22:29;11.40;57.80
44729;DHT22;30457;53.590;9.922;2022-11-12T22:27:14;11.40;57.70
44729;DHT22;30457;53.590;9.922;2022-11-12T22:31:58;11.30;57.90
44729;DHT22;30457;53.590;9.922;2022-11-12T22:36:42;11.20;58.10
44729;DHT22;30457;53.590;9.922;2022-11-12T22:41:28;11.20;58.30
44729;DHT22;30457;53.590;9.922;2022-11-12T22:46:19;11.20;58.50
44729;DHT22;30457;53.590;9.922;2022-11-12T22:51:06;11.20;58.70
44729;DHT22;30457;53.590;9.922;2022-11-12T22:55:50;11.20;58.70
44729;DHT22;30457;53.590;9.922;2022-11-12T23:00:34;11.20;58.70
44729;DHT22;30457;53.590;9.922;2022-11-12T23:05:19;11.20;58.80
44729;DHT22;30457;53.590;9.922;2022-11-12T23:10:04;11.20;58.80
44729;DHT22;30457;53.590;9.922;2022-11-12T23:14:48;11.10;58.60
44729;DHT22;30457;53.590;9.922;2022-11-12T23:19:32;11.10;58.60
44729;DHT22;30457;53.590;9.922;2022-11-12T23:24:16;11.10;58.80
44729;DHT22;30457;53.590;9.922;2022-11-12T23:29:01;11.10;58.70
44729;DHT22;30457;53.590;9.922;2022-11-12T23:33:50;11.10;58.50
44729;DHT22;30457;53.590;9.922;2022-11-12T23:38:35;11.10;58.70
44729;DHT22;30457;53.590;9.922;2022-11-12T23:43:19;11.00;58.90
44729;DHT22;30457;53.590;9.922;2022-11-12T23:48:03;11.00;58.90
44729;DHT22;30457;53.590;9.922;2022-11-12T23:52:48;11.00;59.00
44729;DHT22;30457;53.590;9.922;2022-11-12T23:57:32;11.10;59.00
